Time;durP1;ratioP1;P1;durP2;ratioP2;P2;SDS_P1;SDS_P2;PMS_P1;PMS_P2;Temp;Humidity;BMP_temperature;BMP_pressure;BME280_temperature;BME280_humidity;BME280_pressure;Samples;Min_cycle;Max_cycle;Signal;HPM_P1;HPM_P2
2022/12/01 00:00:18;;;;;;;;;;;5.80;98.70;;;;;;4986020;28;1679;-90
2022/12/01 00:02:45;;;;;;;;;;;5.80;98.50;;;;;;4993907;28;1540;-90
2022/12/01 00:05:13;;;;;;;;;;;5.70;98.30;;;;;;4987803;28;1592;-90
2022/12/01 00:07:41;;;;;;;;;;;5.80;98.50;;;;;;5000203;28;1906;-89
2022/12/01 00:10:27;;;;;;;;;;;5.70;98.50;;;;;;4987013;28;1401;-89
2022/12/01 00:12:56;;;;;;;;;;;5.70;98.40;;;;;;4998834;28;1018;-91
2022/12/01 00:15:28;;;;;;;;;;;5.70;98.90;;;;;;4999868;28;1058;-91
2022/12/01 00:17:56;;;;;;;;;;;5.80;98.70;;;;;;5004437;28;1669;-91
2022/12/01 00:20:23;;;;;;;;;;;5.60;98.00;;;;;;4997507;28;1552;-87
2022/12/01 00:22:51;;;;;;;;;;;5.70;98.00;;;;;;5001244;28;1120;-91
2022/12/01 00:25:19;;;;;;;;;;;5.80;98.40;;;;;;4997175;28;1152;-89
2022/12/01 00:27:47;;;;;;;;;;;5.80;98.70;;;;;;4999440;28;1906;-88
2022/12/01 00:30:16;;;;;;;;;;;5.50;98.30;;;;;;5002830;28;1649;-89
2022/12/01 00:32:45;;;;;;;;;;;5.60;98.70;;;;;;5002544;28;1526;-90
2022/12/01 00:35:13;;;;;;;;;;;5.60;98.30;;;;;;4992087;28;1667;-90
2022/12/01 00:37:41;;;;;;;;;;;5.70;98.60;;;;;;4997386;28;1563;-89
2022/12/01 00:40:09;;;;;;;;;;;5.70;98.30;;;;;;5003127;28;998;-89
2022/12/01 00:42:37;;;;;;;;;;;5.80;98.10;;;;;;5000459;28;1001;-89
2022/12/01 00:45:05;;;;;;;;;;;5.80;98.00;;;;;;4982747;28;1684;-89
2022/12/01 00:47:33;;;;;;;;;;;5.60;98.10;;;;;;4983117;28;1906;-87
2022/12/01 00:50:02;;;;;;;;;;;5.50;97.80;;;;;;4987082;28;1033;-88
2022/12/01 00:52:30;;;;;;;;;;;5.80;98.40;;;;;;5003067;28;1530;-90
2022/12/01 00:54:57;;;;;;;;;;;5.60;98.40;;;;;;5003346;28;1720;-90
2022/12/01 00:57:25;;;;;;;;;;;5.60;98.30;;;;;;4984465;28;1522;-88
2022/12/01 00:59:53;;;;;;;;;;;5.60;97.80;;;;;;5002190;28;1112;-88
2022/12/01 01:02:20;;;;;;;;;;;5.70;98.20;;;;;;5003106;28;1667;-89
2022/12/01 01:04:48;;;;;;;;;;;5.80;97.70;;;;;;5000291;28;998;-89
2022/12/01 01:07:17;;;;;;;;;;;5.70;98.00;;;;;;4991278;28;1371;-89
2022/12/01 01:09:44;;;;;;;;;;;5.70;97.90;;;;;;4999490;28;1903;-89
2022/12/01 01:12:12;;;;;;;;;;;5.80;98.00;;;;;;4983255;28;1561;-89
2022/12/01 01:14:40;;;;;;;;;;;5.70;97.70;;;;;;5000991;28;1720;-89
2022/12/01 01:17:08;;;;;;;;;;;5.60;97.80;;;;;;4986369;28;1647;-88
2022/12/01 01:19:35;;;;;;;;;;;5.70;98.20;;;;;;4992378;28;1732;-89
2022/12/01 01:22:03;;;;;;;;;;;5.60;98.00;;;;;;5000425;28;1053;-89
2022/12/01 01:24:32;;;;;;;;;;;5.60;97.90;;;;;;4984757;28;1723;-88
2022/12/01 01:27:00;;;;;;;;;;;5.50;98.20;;;;;;4994624;28;1006;-89
2022/12/01 01:29:28;;;;;;;;;;;5.60;97.70;;;;;;4993527;28;1875;-90
2022/12/01 01:31:55;;;;;;;;;;;5.60;97.80;;;;;;4990878;28;1585;-90
2022/12/01 01:34:23;;;;;;;;;;;5.70;97.80;;;;;;4989700;28;1546;-89
2022/12/01 01:36:51;;;;;;;;;;;5.60;97.90;;;;;;4985643;28;998;-89
2022/12/01 01:39:19;;;;;;;;;;;5.50;97.80;;;;;;5001958;28;1302;-89
2022/12/01 01:41:48;;;;;;;;;;;5.50;97.70;;;;;;5000770;28;1703;-89
2022/12/01 01:44:35;;;;;;;;;;;5.50;97.90;;;;;;4983555;28;1585;-90
2022/12/01 01:47:02;;;;;;;;;;;5.60;98.20;;;;;;4972215;28;1706;-89
2022/12/01 01:49:30;;;;;;;;;;;5.50;97.70;;;;;;4981127;28;2000;-89
2022/12/01 01:51:57;;;;;;;;;;;5.50;97.90;;;;;;4989920;28;1022;-90
2022/12/01 01:54:28;;;;;;;;;;;5.50;97.80;;;;;;4998289;28;1656;-89
2022/12/01 01:56:57;;;;;;;;;;;5.60;97.70;;;;;;4997961;28;1561;-90
2022/12/01 01:59:27;;;;;;;;;;;5.50;97.50;;;;;;5000351;28;1295;-90
2022/12/01 02:01:58;;;;;;;;;;;5.50;98.10;;;;;;5001069;28;1699;-90
2022/12/01 02:04:26;;;;;;;;;;;5.50;97.90;;;;;;5005031;28;1895;-90
2022/12/01 02:06:54;;;;;;;;;;;5.30;97.80;;;;;;4997220;28;1668;-88
2022/12/01 02:09:22;;;;;;;;;;;5.50;98.00;;;;;;4993154;28;1899;-88
2022/12/01 02:11:57;;;;;;;;;;;5.40;97.70;;;;;;4996172;28;1528;-88
2022/12/01 02:17:17;;;;;;;;;;;5.50;97.90;;;;;;5674203;23;1857;-90
2022/12/01 02:19:54;;;;;;;;;;;5.50;98.20;;;;;;4961299;29;1662;-88
2022/12/01 02:22:27;;;;;;;;;;;5.40;97.90;;;;;;4967181;28;1041;-88
2022/12/01 02:25:10;;;;;;;;;;;5.50;97.60;;;;;;4975685;28;1658;-87
2022/12/01 02:27:49;;;;;;;;;;;5.50;97.60;;;;;;4985395;28;1478;-89
2022/12/01 02:30:17;;;;;;;;;;;5.60;97.70;;;;;;4961842;28;1958;-88
2022/12/01 02:32:59;;;;;;;;;;;5.60;97.50;;;;;;4952025;28;1034;-89
2022/12/01 02:35:31;;;;;;;;;;;5.60;97.50;;;;;;4959866;28;1630;-88
2022/12/01 02:38:04;;;;;;;;;;;5.40;97.70;;;;;;4977526;28;1725;-88
2022/12/01 02:40:33;;;;;;;;;;;5.70;97.80;;;;;;4961907;28;1526;-88
2022/12/01 02:43:04;;;;;;;;;;;5.60;97.50;;;;;;4971974;28;1681;-87
2022/12/01 02:45:35;;;;;;;;;;;5.60;97.50;;;;;;4964954;28;1001;-87
2022/12/01 02:48:07;;;;;;;;;;;5.30;97.60;;;;;;4963190;28;1733;-89
2022/12/01 02:50:36;;;;;;;;;;;5.30;97.70;;;;;;4962904;29;1911;-89
2022/12/01 02:53:05;;;;;;;;;;;5.40;97.70;;;;;;4980385;28;1042;-89
2022/12/01 02:55:33;;;;;;;;;;;5.30;97.50;;;;;;4982601;28;1533;-90
2022/12/01 02:58:00;;;;;;;;;;;5.30;97.40;;;;;;4981775;28;1683;-90
2022/12/01 03:00:30;;;;;;;;;;;5.30;97.50;;;;;;4968087;28;1515;-87
2022/12/01 03:03:07;;;;;;;;;;;5.20;97.90;;;;;;4969515;28;1590;-88
2022/12/01 03:05:40;;;;;;;;;;;5.30;98.30;;;;;;4968210;28;1010;-89
2022/12/01 03:08:13;;;;;;;;;;;5.30;97.40;;;;;;4978500;28;1549;-88
2022/12/01 03:10:46;;;;;;;;;;;5.60;97.50;;;;;;4962209;29;2045;-91
2022/12/01 03:13:19;;;;;;;;;;;5.60;97.30;;;;;;4976326;28;1411;-91
2022/12/01 03:15:50;;;;;;;;;;;5.40;97.30;;;;;;4943741;29;1539;-91
2022/12/01 03:18:23;;;;;;;;;;;5.30;97.30;;;;;;4958037;28;1554;-90
2022/12/01 03:20:55;;;;;;;;;;;5.30;97.60;;;;;;4966595;28;1030;-89
2022/12/01 03:23:25;;;;;;;;;;;5.40;97.20;;;;;;4968163;28;959;-89
2022/12/01 03:25:54;;;;;;;;;;;5.40;97.40;;;;;;4970631;28;1384;-91
2022/12/01 03:28:27;;;;;;;;;;;5.50;97.30;;;;;;4962132;28;1644;-91
2022/12/01 03:30:57;;;;;;;;;;;5.60;96.80;;;;;;4962624;29;1906;-91
2022/12/01 03:33:27;;;;;;;;;;;5.30;96.90;;;;;;4993714;28;1553;-89
2022/12/01 03:35:59;;;;;;;;;;;5.30;97.40;;;;;;4965548;28;1538;-92
2022/12/01 03:38:27;;;;;;;;;;;5.30;97.30;;;;;;4974479;28;1577;-92
2022/12/01 03:40:57;;;;;;;;;;;5.40;97.20;;;;;;4985959;28;1526;-91
2022/12/01 03:43:28;;;;;;;;;;;5.30;97.10;;;;;;4980971;28;1714;-90
2022/12/01 03:45:58;;;;;;;;;;;5.40;96.90;;;;;;4968378;28;1648;-89
2022/12/01 03:48:27;;;;;;;;;;;5.40;97.00;;;;;;4975019;28;1368;-89
2022/12/01 03:51:02;;;;;;;;;;;5.30;96.80;;;;;;4967648;28;1907;-90
2022/12/01 03:53:34;;;;;;;;;;;5.30;97.40;;;;;;4970870;28;1632;-87
2022/12/01 03:56:03;;;;;;;;;;;5.40;96.80;;;;;;4974580;28;1542;-87
2022/12/01 03:58:33;;;;;;;;;;;5.40;96.80;;;;;;4968125;28;1443;-85
2022/12/01 04:01:02;;;;;;;;;;;5.30;97.30;;;;;;4974602;28;1074;-85
2022/12/01 04:03:29;;;;;;;;;;;5.40;96.90;;;;;;4967223;28;966;-85
2022/12/01 04:05:58;;;;;;;;;;;5.30;96.40;;;;;;4973629;28;829;-85
2022/12/01 04:08:26;;;;;;;;;;;5.30;96.90;;;;;;4977700;28;1267;-87
2022/12/01 04:10:54;;;;;;;;;;;5.40;96.50;;;;;;4980635;28;1910;-87
2022/12/01 04:13:22;;;;;;;;;;;5.50;96.80;;;;;;4968835;28;1668;-88
2022/12/01 04:15:50;;;;;;;;;;;5.70;96.60;;;;;;4976712;28;1040;-88
2022/12/01 04:18:18;;;;;;;;;;;5.40;96.40;;;;;;4969090;28;1407;-87
2022/12/01 04:20:46;;;;;;;;;;;5.40;96.50;;;;;;4972066;28;1704;-87
2022/12/01 04:23:58;;;;;;;;;;;5.40;96.40;;;;;;4977675;28;1099;-88
2022/12/01 04:26:04;;;;;;;;;;;5.30;96.80;;;;;;4968195;28;1686;-86
2022/12/01 04:28:32;;;;;;;;;;;5.30;96.80;;;;;;4974921;28;1523;-86
2022/12/01 04:30:59;;;;;;;;;;;5.20;96.80;;;;;;4966721;28;1883;-87
2022/12/01 04:33:28;;;;;;;;;;;5.20;96.80;;;;;;4976114;28;1014;-85
2022/12/01 04:35:57;;;;;;;;;;;5.30;97.00;;;;;;4971734;28;1033;-86
2022/12/01 04:38:26;;;;;;;;;;;5.10;97.10;;;;;;4973866;28;1294;-88
2022/12/01 04:40:57;;;;;;;;;;;5.10;97.00;;;;;;4977506;28;990;-86
2022/12/01 04:43:25;;;;;;;;;;;5.10;96.90;;;;;;4974670;28;1013;-88
2022/12/01 04:45:52;;;;;;;;;;;5.20;97.10;;;;;;4976980;28;1086;-88
2022/12/01 04:48:20;;;;;;;;;;;5.30;96.50;;;;;;4978287;28;1641;-88
2022/12/01 04:50:48;;;;;;;;;;;5.20;96.50;;;;;;4969780;28;1993;-87
2022/12/01 04:53:16;;;;;;;;;;;5.20;96.80;;;;;;4971650;28;1384;-85
2022/12/01 04:55:45;;;;;;;;;;;5.30;96.60;;;;;;4974462;28;1086;-87
2022/12/01 04:58:13;;;;;;;;;;;5.40;96.20;;;;;;4972902;28;1484;-87
2022/12/01 05:00:40;;;;;;;;;;;5.30;96.20;;;;;;4964730;28;1383;-86
2022/12/01 05:03:08;;;;;;;;;;;5.20;96.20;;;;;;4964132;28;1254;-87
2022/12/01 05:05:41;;;;;;;;;;;5.50;96.60;;;;;;4967479;28;1113;-85
2022/12/01 05:08:09;;;;;;;;;;;5.60;96.30;;;;;;4969760;28;1339;-85
2022/12/01 05:10:37;;;;;;;;;;;5.30;96.40;;;;;;4963380;28;1907;-87
2022/12/01 05:13:06;;;;;;;;;;;5.30;96.10;;;;;;4968624;28;1038;-88
2022/12/01 05:15:34;;;;;;;;;;;5.30;96.20;;;;;;4974915;28;1006;-87
2022/12/01 05:18:01;;;;;;;;;;;5.30;96.20;;;;;;4971501;28;1336;-87
2022/12/01 05:23:14;;;;;;;;;;;5.30;96.10;;;;;;4969360;28;1002;-87
2022/12/01 05:25:43;;;;;;;;;;;5.60;96.30;;;;;;4970102;28;1409;-88
2022/12/01 05:28:12;;;;;;;;;;;5.40;96.00;;;;;;4968981;28;1367;-88
2022/12/01 05:30:40;;;;;;;;;;;5.40;96.20;;;;;;4964427;28;1974;-86
2022/12/01 05:33:08;;;;;;;;;;;5.30;96.00;;;;;;4982450;28;942;-86
2022/12/01 05:35:36;;;;;;;;;;;5.20;96.30;;;;;;4966097;28;1146;-87
2022/12/01 05:38:03;;;;;;;;;;;5.20;96.40;;;;;;4960474;28;1277;-87
2022/12/01 05:40:40;;;;;;;;;;;5.50;97.10;;;;;;4986175;28;990;-86
2022/12/01 05:43:08;;;;;;;;;;;5.30;96.60;;;;;;4963256;29;1034;-86
2022/12/01 05:45:37;;;;;;;;;;;5.20;96.10;;;;;;4963347;28;1077;-86
2022/12/01 05:48:05;;;;;;;;;;;5.20;96.40;;;;;;4970078;28;1696;-85
2022/12/01 05:50:32;;;;;;;;;;;5.30;96.20;;;;;;4973432;28;1907;-87
2022/12/01 05:53:00;;;;;;;;;;;5.30;96.10;;;;;;4960089;28;1013;-85
2022/12/01 05:55:27;;;;;;;;;;;5.20;96.40;;;;;;4964119;28;1534;-87
2022/12/01 05:57:55;;;;;;;;;;;5.20;96.20;;;;;;4966673;28;1476;-86
2022/12/01 06:00:23;;;;;;;;;;;5.30;96.20;;;;;;4967455;28;995;-87
2022/12/01 06:02:52;;;;;;;;;;;5.20;96.00;;;;;;4974418;28;1715;-86
2022/12/01 06:05:20;;;;;;;;;;;5.30;96.60;;;;;;4961476;29;1030;-87
2022/12/01 06:07:47;;;;;;;;;;;5.20;96.90;;;;;;4971087;28;1496;-87
2022/12/01 06:10:15;;;;;;;;;;;5.20;96.30;;;;;;4968526;28;1024;-89
2022/12/01 06:12:43;;;;;;;;;;;5.20;96.30;;;;;;4974897;28;1978;-88
2022/12/01 06:15:11;;;;;;;;;;;5.10;96.80;;;;;;4966176;28;1019;-90
2022/12/01 06:17:39;;;;;;;;;;;5.20;96.70;;;;;;4966033;28;1357;-91
2022/12/01 06:20:09;;;;;;;;;;;5.20;96.70;;;;;;4968386;28;1719;-86
2022/12/01 06:22:37;;;;;;;;;;;5.30;96.70;;;;;;4972265;28;991;-91
2022/12/01 06:25:05;;;;;;;;;;;5.30;96.70;;;;;;4988087;28;1502;-92
2022/12/01 06:27:33;;;;;;;;;;;5.40;96.70;;;;;;4989425;28;1657;-92
2022/12/01 06:30:00;;;;;;;;;;;5.30;96.50;;;;;;4987828;28;1534;-91
2022/12/01 06:32:28;;;;;;;;;;;5.20;96.60;;;;;;4976147;28;1983;-88
2022/12/01 06:34:56;;;;;;;;;;;5.10;96.90;;;;;;4969268;28;1560;-88
2022/12/01 06:37:26;;;;;;;;;;;5.10;96.70;;;;;;4978027;28;1393;-87
2022/12/01 06:39:54;;;;;;;;;;;5.10;97.20;;;;;;4979548;28;979;-87
2022/12/01 06:42:22;;;;;;;;;;;5.20;96.90;;;;;;4968301;28;978;-88
2022/12/01 06:44:50;;;;;;;;;;;5.40;96.60;;;;;;4966285;28;1247;-86
2022/12/01 06:47:17;;;;;;;;;;;5.10;96.70;;;;;;4959830;28;1430;-85
2022/12/01 06:49:46;;;;;;;;;;;5.10;96.70;;;;;;4964998;28;1045;-90
2022/12/01 06:52:14;;;;;;;;;;;5.00;96.90;;;;;;4942990;29;1884;-87
2022/12/01 06:54:43;;;;;;;;;;;5.40;96.90;;;;;;4967990;28;1596;-87
2022/12/01 06:57:12;;;;;;;;;;;5.20;97.10;;;;;;4962978;28;1142;-86
2022/12/01 06:59:39;;;;;;;;;;;5.10;96.80;;;;;;4977544;28;1562;-88
2022/12/01 07:02:09;;;;;;;;;;;5.10;97.00;;;;;;4970372;28;1717;-87
2022/12/01 07:04:37;;;;;;;;;;;5.40;97.60;;;;;;4986160;28;1741;-89
2022/12/01 07:07:05;;;;;;;;;;;5.10;97.60;;;;;;4969005;28;1407;-88
2022/12/01 07:09:32;;;;;;;;;;;5.20;97.00;;;;;;4971112;28;1692;-87
2022/12/01 07:12:02;;;;;;;;;;;5.10;96.70;;;;;;4987712;28;1883;-87
2022/12/01 07:14:30;;;;;;;;;;;5.30;96.80;;;;;;4980204;28;1041;-85
2022/12/01 07:16:58;;;;;;;;;;;5.10;96.20;;;;;;4966680;28;1494;-84
2022/12/01 07:19:26;;;;;;;;;;;5.10;96.70;;;;;;4976646;28;1414;-87
2022/12/01 07:21:53;;;;;;;;;;;5.00;96.50;;;;;;4973728;28;1133;-84
2022/12/01 07:24:21;;;;;;;;;;;4.90;96.50;;;;;;4965693;28;1284;-86
2022/12/01 07:26:49;;;;;;;;;;;5.00;96.50;;;;;;4970068;28;1145;-86
2022/12/01 07:29:18;;;;;;;;;;;5.10;96.50;;;;;;4966232;28;1697;-87
2022/12/01 07:31:46;;;;;;;;;;;5.20;96.40;;;;;;4969296;28;1977;-86
2022/12/01 07:34:14;;;;;;;;;;;5.20;96.20;;;;;;4973474;28;1283;-84
2022/12/01 07:36:41;;;;;;;;;;;4.80;96.00;;;;;;4970368;28;1264;-85
2022/12/01 07:39:09;;;;;;;;;;;5.20;95.80;;;;;;4975111;28;1612;-85
2022/12/01 07:41:37;;;;;;;;;;;5.20;96.10;;;;;;4974331;28;1064;-85
2022/12/01 07:44:05;;;;;;;;;;;5.20;95.90;;;;;;4976673;28;1041;-86
2022/12/01 07:46:34;;;;;;;;;;;5.10;95.80;;;;;;4979914;28;1469;-86
2022/12/01 07:49:05;;;;;;;;;;;5.10;95.90;;;;;;4983369;28;1303;-86
2022/12/01 07:51:32;;;;;;;;;;;5.10;95.90;;;;;;4968647;28;1969;-86
2022/12/01 07:54:02;;;;;;;;;;;5.10;95.60;;;;;;4974769;28;1213;-85
2022/12/01 07:56:29;;;;;;;;;;;5.10;96.20;;;;;;4969145;28;1001;-86
2022/12/01 07:58:57;;;;;;;;;;;5.00;96.10;;;;;;4975092;28;1579;-88
2022/12/01 08:01:25;;;;;;;;;;;5.20;95.60;;;;;;4967063;28;1523;-89
2022/12/01 08:03:56;;;;;;;;;;;5.20;95.80;;;;;;4969787;28;1030;-88
2022/12/01 08:06:24;;;;;;;;;;;5.20;95.90;;;;;;4963423;29;1775;-90
2022/12/01 08:08:53;;;;;;;;;;;5.20;95.80;;;;;;4983317;28;1282;-90
2022/12/01 08:11:22;;;;;;;;;;;5.00;95.10;;;;;;4984374;28;1549;-88
2022/12/01 08:13:51;;;;;;;;;;;5.10;95.70;;;;;;4964982;28;1879;-88
2022/12/01 08:16:19;;;;;;;;;;;4.80;95.80;;;;;;4987612;28;1549;-88
2022/12/01 08:18:47;;;;;;;;;;;4.80;95.80;;;;;;4973977;28;1574;-88
2022/12/01 08:21:18;;;;;;;;;;;4.90;95.30;;;;;;4963597;29;975;-87
2022/12/01 08:23:46;;;;;;;;;;;4.90;95.50;;;;;;4970368;28;1762;-90
2022/12/01 08:26:15;;;;;;;;;;;5.00;94.80;;;;;;4971559;28;1692;-88
2022/12/01 08:28:43;;;;;;;;;;;4.70;95.80;;;;;;4975929;28;1245;-87
2022/12/01 08:31:12;;;;;;;;;;;4.70;95.90;;;;;;4954864;29;1875;-89
2022/12/01 08:33:40;;;;;;;;;;;4.80;95.50;;;;;;4967894;28;1958;-89
2022/12/01 08:36:08;;;;;;;;;;;4.90;94.90;;;;;;4967240;28;1736;-88
2022/12/01 08:38:37;;;;;;;;;;;5.00;94.90;;;;;;4981210;28;1445;-89
2022/12/01 08:41:08;;;;;;;;;;;5.10;95.00;;;;;;4970290;28;1510;-87
2022/12/01 08:43:38;;;;;;;;;;;5.00;95.50;;;;;;4975369;28;1639;-89
2022/12/01 08:46:26;;;;;;;;;;;5.00;94.60;;;;;;4962613;29;1158;-87
2022/12/01 08:48:56;;;;;;;;;;;5.20;94.70;;;;;;4970812;28;1361;-88
2022/12/01 08:51:24;;;;;;;;;;;5.20;94.60;;;;;;4974464;28;1234;-88
2022/12/01 08:53:54;;;;;;;;;;;5.60;94.60;;;;;;4981598;28;1875;-85
2022/12/01 08:56:23;;;;;;;;;;;5.10;94.40;;;;;;4979196;28;1567;-88
2022/12/01 08:58:51;;;;;;;;;;;5.00;94.60;;;;;;4968344;28;1388;-88
2022/12/01 09:01:19;;;;;;;;;;;5.00;94.40;;;;;;4970441;28;1782;-87
2022/12/01 09:04:04;;;;;;;;;;;5.30;94.30;;;;;;4958756;28;1779;-87
2022/12/01 09:06:33;;;;;;;;;;;5.10;94.40;;;;;;4968141;28;1641;-89
2022/12/01 09:09:02;;;;;;;;;;;5.30;94.30;;;;;;4969829;28;1511;-87
2022/12/01 09:11:31;;;;;;;;;;;5.10;94.30;;;;;;4969800;28;1082;-86
2022/12/01 09:13:58;;;;;;;;;;;5.20;94.80;;;;;;4967966;28;1887;-88
2022/12/01 09:16:26;;;;;;;;;;;5.30;93.30;;;;;;4943614;29;1592;-87
2022/12/01 09:18:54;;;;;;;;;;;5.00;93.10;;;;;;4948467;28;1589;-87
2022/12/01 09:21:23;;;;;;;;;;;4.80;93.60;;;;;;4966767;28;1014;-89
2022/12/01 09:23:51;;;;;;;;;;;4.80;94.10;;;;;;4955939;28;1689;-86
2022/12/01 09:26:20;;;;;;;;;;;4.80;93.50;;;;;;4970947;28;1328;-89
2022/12/01 09:28:52;;;;;;;;;;;5.00;93.80;;;;;;4980219;28;1450;-89
2022/12/01 09:31:22;;;;;;;;;;;5.10;93.60;;;;;;4971132;28;1097;-88
2022/12/01 09:33:53;;;;;;;;;;;5.10;93.30;;;;;;4954240;28;1956;-91
2022/12/01 09:36:21;;;;;;;;;;;5.20;93.80;;;;;;4964801;28;1054;-87
2022/12/01 09:38:49;;;;;;;;;;;5.20;93.20;;;;;;4961745;28;1401;-90
2022/12/01 09:41:21;;;;;;;;;;;5.50;93.20;;;;;;4980927;28;1709;-88
2022/12/01 09:43:51;;;;;;;;;;;5.40;93.50;;;;;;4978263;28;954;-90
2022/12/01 09:46:20;;;;;;;;;;;5.20;93.10;;;;;;4982717;28;1160;-88
2022/12/01 09:48:49;;;;;;;;;;;4.90;93.30;;;;;;4971308;28;1562;-87
2022/12/01 09:51:18;;;;;;;;;;;5.00;93.20;;;;;;4971837;28;1541;-89
2022/12/01 09:53:49;;;;;;;;;;;5.10;92.40;;;;;;4967396;28;1910;-87
2022/12/01 09:56:19;;;;;;;;;;;5.10;93.20;;;;;;4980740;28;1018;-86
2022/12/01 09:58:49;;;;;;;;;;;5.20;93.10;;;;;;4983098;28;1715;-87
2022/12/01 10:01:18;;;;;;;;;;;5.20;92.30;;;;;;4964403;29;1690;-87
2022/12/01 10:03:55;;;;;;;;;;;5.20;92.70;;;;;;4964851;29;1085;-88
2022/12/01 10:06:26;;;;;;;;;;;5.30;92.60;;;;;;4971815;28;1014;-86
2022/12/01 10:09:00;;;;;;;;;;;5.10;92.30;;;;;;4970790;28;1429;-87
2022/12/01 10:11:30;;;;;;;;;;;5.00;92.30;;;;;;4972310;28;1563;-87
2022/12/01 10:14:00;;;;;;;;;;;5.00;92.50;;;;;;4977678;28;1921;-88
2022/12/01 10:16:30;;;;;;;;;;;5.10;92.10;;;;;;4973956;28;1003;-92
2022/12/01 10:19:00;;;;;;;;;;;5.30;92.10;;;;;;4987300;28;1525;-90
2022/12/01 10:21:33;;;;;;;;;;;4.90;92.50;;;;;;4980054;28;1640;-88
2022/12/01 10:24:09;;;;;;;;;;;4.90;92.70;;;;;;4980874;28;1861;-90
2022/12/01 10:26:41;;;;;;;;;;;4.90;92.70;;;;;;4986736;28;1719;-88
2022/12/01 10:29:13;;;;;;;;;;;4.90;92.70;;;;;;4985762;28;1239;-88
2022/12/01 10:31:49;;;;;;;;;;;4.90;92.80;;;;;;4983070;28;1005;-87
2022/12/01 10:34:19;;;;;;;;;;;4.60;93.00;;;;;;4983705;28;1902;-88
2022/12/01 10:36:47;;;;;;;;;;;4.50;93.00;;;;;;4976311;28;1588;-87
2022/12/01 10:39:17;;;;;;;;;;;5.00;93.10;;;;;;4951011;28;1246;-88
2022/12/01 10:41:45;;;;;;;;;;;4.70;93.30;;;;;;4968965;28;1541;-86
2022/12/01 10:44:15;;;;;;;;;;;4.60;92.30;;;;;;4977095;28;1530;-88
2022/12/01 10:46:44;;;;;;;;;;;4.80;91.90;;;;;;4969433;28;974;-87
2022/12/01 10:49:13;;;;;;;;;;;4.50;91.40;;;;;;4964631;28;1686;-86
2022/12/01 10:51:48;;;;;;;;;;;4.60;91.60;;;;;;4941944;29;1018;-90
2022/12/01 10:54:16;;;;;;;;;;;4.60;91.30;;;;;;4959699;29;1985;-91
2022/12/01 10:56:46;;;;;;;;;;;4.50;91.00;;;;;;4965504;29;1541;-92
2022/12/01 10:59:22;;;;;;;;;;;4.30;91.70;;;;;;4966537;28;1662;-90
2022/12/01 11:01:49;;;;;;;;;;;4.40;91.80;;;;;;4985008;28;1370;-92
2022/12/01 11:04:33;;;;;;;;;;;4.60;91.30;;;;;;5000750;28;877;-93
2022/12/01 11:07:01;;;;;;;;;;;4.60;91.60;;;;;;4970911;28;1526;-94
2022/12/01 11:09:30;;;;;;;;;;;4.40;91.30;;;;;;4969860;28;1694;-91
2022/12/01 11:11:59;;;;;;;;;;;4.50;92.00;;;;;;4972325;28;1623;-91
2022/12/01 11:14:40;;;;;;;;;;;4.50;92.10;;;;;;4966122;29;1910;-91
2022/12/01 11:17:15;;;;;;;;;;;4.50;92.60;;;;;;4955799;29;2076;-90
2022/12/01 11:19:46;;;;;;;;;;;4.60;92.60;;;;;;4984003;28;1574;-90
2022/12/01 11:22:23;;;;;;;;;;;4.50;91.70;;;;;;4989367;28;1671;-91
2022/12/01 11:24:59;;;;;;;;;;;4.60;93.10;;;;;;4990068;28;1677;-92
2022/12/01 11:27:31;;;;;;;;;;;4.30;93.90;;;;;;4990610;28;1741;-91
2022/12/01 11:30:03;;;;;;;;;;;4.50;94.10;;;;;;4993084;28;1574;-92
2022/12/01 11:32:33;;;;;;;;;;;4.40;94.00;;;;;;4991609;28;1589;-91
2022/12/01 11:35:02;;;;;;;;;;;4.60;94.20;;;;;;4996907;28;1907;-92
2022/12/01 11:37:34;;;;;;;;;;;4.50;94.40;;;;;;4991733;28;1629;-91
2022/12/01 11:40:09;;;;;;;;;;;4.40;93.90;;;;;;4996370;28;1613;-91
2022/12/01 11:42:40;;;;;;;;;;;4.30;94.60;;;;;;4991018;28;1565;-92
2022/12/01 11:45:20;;;;;;;;;;;4.10;94.30;;;;;;4991883;28;1513;-90
2022/12/01 11:47:58;;;;;;;;;;;4.30;94.60;;;;;;4992509;28;1554;-92
2022/12/01 11:50:27;;;;;;;;;;;4.50;94.40;;;;;;4993790;28;1880;-91
2022/12/01 11:52:56;;;;;;;;;;;4.60;93.90;;;;;;4994978;28;1558;-93
2022/12/01 11:55:25;;;;;;;;;;;4.40;93.40;;;;;;4995765;28;2007;-92
2022/12/01 11:57:57;;;;;;;;;;;4.40;93.70;;;;;;4997866;28;1576;-89
2022/12/01 12:00:29;;;;;;;;;;;4.40;94.00;;;;;;4991954;28;1408;-93
2022/12/01 12:03:08;;;;;;;;;;;4.50;93.90;;;;;;4999855;28;1703;-91
2022/12/01 12:05:47;;;;;;;;;;;4.50;94.00;;;;;;4997831;28;1569;-91
2022/12/01 12:08:27;;;;;;;;;;;4.50;94.00;;;;;;5002237;28;1522;-93
2022/12/01 12:10:58;;;;;;;;;;;4.60;93.80;;;;;;5000903;28;1384;-90
2022/12/01 12:13:35;;;;;;;;;;;4.50;93.20;;;;;;4996892;28;1439;-91
2022/12/01 12:16:18;;;;;;;;;;;4.40;93.70;;;;;;4998002;28;1507;-93
2022/12/01 12:18:55;;;;;;;;;;;4.00;93.60;;;;;;4992933;28;1682;-91
2022/12/01 12:21:29;;;;;;;;;;;4.30;93.80;;;;;;4993973;28;1819;-92
2022/12/01 12:24:12;;;;;;;;;;;4.50;93.10;;;;;;4994628;28;1533;-92
2022/12/01 12:26:43;;;;;;;;;;;4.50;93.50;;;;;;4995619;28;1581;-91
2022/12/01 12:29:27;;;;;;;;;;;4.40;92.90;;;;;;4996580;28;1526;-90
2022/12/01 12:32:05;;;;;;;;;;;4.40;93.00;;;;;;4980189;28;1553;-92
2022/12/01 12:34:45;;;;;;;;;;;4.50;93.00;;;;;;4974621;29;1879;-91
2022/12/01 12:40:29;;;;;;;;;;;4.80;93.20;;;;;;4953107;29;1688;-91
2022/12/01 12:43:04;;;;;;;;;;;4.50;93.10;;;;;;4952073;29;1428;-92
2022/12/01 12:45:34;;;;;;;;;;;4.40;93.30;;;;;;4971057;29;1545;-91
2022/12/01 12:48:14;;;;;;;;;;;4.40;92.90;;;;;;4974843;28;1705;-94
2022/12/01 12:50:45;;;;;;;;;;;4.30;93.30;;;;;;4969997;29;1577;-91
2022/12/01 12:53:18;;;;;;;;;;;4.30;92.70;;;;;;4969748;29;1560;-94
2022/12/01 12:55:53;;;;;;;;;;;4.20;93.10;;;;;;4973699;29;1891;-95
2022/12/01 12:58:24;;;;;;;;;;;4.20;93.50;;;;;;4973431;28;1600;-94
2022/12/01 13:00:54;;;;;;;;;;;4.50;93.50;;;;;;4974369;29;1385;-93
2022/12/01 13:03:42;;;;;;;;;;;4.60;93.20;;;;;;4969798;29;1038;-90
2022/12/01 13:06:15;;;;;;;;;;;4.60;93.30;;;;;;4967499;29;1674;-90
2022/12/01 13:09:03;;;;;;;;;;;4.60;93.20;;;;;;4968602;28;1448;-90
2022/12/01 13:11:35;;;;;;;;;;;4.40;93.40;;;;;;4980212;28;1550;-94
2022/12/01 13:14:06;;;;;;;;;;;4.00;92.90;;;;;;4974088;28;1714;-92
2022/12/01 13:16:48;;;;;;;;;;;4.70;92.60;;;;;;4970653;29;1662;-92
2022/12/01 13:19:23;;;;;;;;;;;4.40;92.80;;;;;;4971919;28;1585;-91
2022/12/01 13:27:53;;;;;;;;;;;4.40;92.80;;;;;;4942768;23;1756;-71
2022/12/01 13:30:21;;;;;;;;;;;4.10;93.80;;;;;;4986976;28;1786;-71
2022/12/01 13:32:56;;;;;;;;;;;4.00;94.20;;;;;;4986928;28;1437;-71
2022/12/01 13:35:27;;;;;;;;;;;4.10;94.10;;;;;;4989122;28;1914;-70
2022/12/01 13:38:14;;;;;;;;;;;4.10;93.80;;;;;;4990410;28;1374;-70
2022/12/01 13:40:42;;;;;;;;;;;4.20;93.70;;;;;;4984880;28;1670;-71
2022/12/01 13:43:16;;;;;;;;;;;4.30;93.60;;;;;;4982617;28;1834;-71
2022/12/01 13:45:44;;;;;;;;;;;4.30;93.50;;;;;;4985904;28;1704;-69
2022/12/01 13:48:26;;;;;;;;;;;4.40;93.30;;;;;;4982271;28;1584;-71
2022/12/01 13:50:59;;;;;;;;;;;4.30;93.20;;;;;;4977904;28;1113;-73
2022/12/01 13:53:29;;;;;;;;;;;4.10;93.30;;;;;;4985531;28;1774;-71
2022/12/01 13:55:59;;;;;;;;;;;3.80;94.00;;;;;;4987384;28;1906;-71
2022/12/01 13:58:41;;;;;;;;;;;3.80;94.20;;;;;;4991293;28;1411;-71
2022/12/01 14:01:28;;;;;;;;;;;3.80;93.90;;;;;;4985585;28;1520;-71
2022/12/01 14:03:59;;;;;;;;;;;4.00;94.00;;;;;;4976041;28;2052;-72
2022/12/01 14:06:37;;;;;;;;;;;3.90;93.80;;;;;;4985890;28;1057;-71
2022/12/01 14:09:07;;;;;;;;;;;4.00;93.60;;;;;;4990452;28;1586;-71
2022/12/01 14:11:35;;;;;;;;;;;4.20;93.80;;;;;;4987831;28;1503;-73
2022/12/01 14:14:10;;;;;;;;;;;4.20;93.70;;;;;;4988387;28;1696;-73
2022/12/01 14:16:47;;;;;;;;;;;4.10;93.40;;;;;;4984472;28;1914;-72
2022/12/01 14:19:26;;;;;;;;;;;4.10;93.40;;;;;;4985998;28;1739;-71
2022/12/01 14:21:56;;;;;;;;;;;3.90;93.70;;;;;;4986760;28;1466;-71
2022/12/01 14:24:26;;;;;;;;;;;4.10;93.80;;;;;;4986693;28;1594;-72
2022/12/01 14:26:54;;;;;;;;;;;4.00;93.40;;;;;;4988100;28;1641;-67
2022/12/01 14:29:29;;;;;;;;;;;4.10;93.70;;;;;;4980594;28;1599;-66
2022/12/01 14:32:24;;;;;;;;;;;3.90;94.10;;;;;;4980918;28;1704;-66
2022/12/01 14:34:58;;;;;;;;;;;3.80;94.20;;;;;;4979044;28;1934;-68
2022/12/01 14:37:29;;;;;;;;;;;3.80;93.60;;;;;;4984482;28;1700;-65
2022/12/01 14:39:58;;;;;;;;;;;3.80;93.30;;;;;;4984589;28;781;-66
2022/12/01 14:45:16;;;;;;;;;;;3.90;92.80;;;;;;4986782;28;1673;-66
2022/12/01 14:47:45;;;;;;;;;;;3.80;93.10;;;;;;4983103;28;1715;-67
2022/12/01 14:50:14;;;;;;;;;;;4.00;93.30;;;;;;4985244;28;1130;-67
2022/12/01 14:52:44;;;;;;;;;;;3.90;93.20;;;;;;4980041;28;1270;-67
2022/12/01 14:55:14;;;;;;;;;;;4.00;92.90;;;;;;4993085;28;2001;-67
2022/12/01 14:57:44;;;;;;;;;;;3.80;92.90;;;;;;4992851;28;1054;-67
2022/12/01 15:00:13;;;;;;;;;;;4.00;93.40;;;;;;4995842;28;1093;-68
2022/12/01 15:02:41;;;;;;;;;;;4.00;93.30;;;;;;4997252;28;1609;-68
2022/12/01 15:05:10;;;;;;;;;;;3.90;93.20;;;;;;4997633;28;1683;-72
2022/12/01 15:07:39;;;;;;;;;;;4.00;93.50;;;;;;4996177;28;1798;-75
2022/12/01 15:10:16;;;;;;;;;;;4.10;93.10;;;;;;4992843;28;1672;-75
2022/12/01 15:12:47;;;;;;;;;;;4.20;92.80;;;;;;4993450;28;1514;-75
2022/12/01 15:15:15;;;;;;;;;;;4.20;92.80;;;;;;4996967;28;1988;-74
2022/12/01 15:17:50;;;;;;;;;;;4.30;92.60;;;;;;4994323;28;1064;-70
2022/12/01 15:20:28;;;;;;;;;;;4.20;92.80;;;;;;4995606;28;1160;-70